createdAt,value
2022-09-26T00:01:33.617Z,23.73
2022-09-26T00:06:35.305Z,23.33
2022-09-26T00:11:37.061Z,21.10
2022-09-26T00:16:38.846Z,22.55
2022-09-26T00:21:40.549Z,21.80
2022-09-26T00:26:42.125Z,21.45
2022-09-26T00:31:43.738Z,20.60
2022-09-26T00:36:45.483Z,20.23
2022-09-26T00:41:47.030Z,22.48
2022-09-26T00:46:48.575Z,24.50
2022-09-26T00:51:50.151Z,23.85
2022-09-26T00:56:51.672Z,22.33
2022-09-26T01:01:53.482Z,21.05
2022-09-26T01:06:55.419Z,20.75
2022-09-26T01:11:57.146Z,20.08
2022-09-26T01:16:58.958Z,19.85
2022-09-26T01:22:00.580Z,22.50
2022-09-26T01:27:02.403Z,25.67
2022-09-26T01:32:03.946Z,27.65
2022-09-26T01:37:05.509Z,25.25
2022-09-26T01:42:07.066Z,24.20
2022-09-26T01:47:08.607Z,25.50
2022-09-26T01:52:10.265Z,24.35
2022-09-26T01:57:11.788Z,26.63
2022-09-26T02:02:13.568Z,26.55
2022-09-26T02:07:15.188Z,24.05
2022-09-26T02:12:16.949Z,23.90
2022-09-26T02:17:18.708Z,25.77
2022-09-26T02:22:20.238Z,26.20
2022-09-26T02:27:21.893Z,24.67
2022-09-26T02:32:23.642Z,26.45
2022-09-26T02:37:25.389Z,24.08
2022-09-26T02:42:27.090Z,24.27
2022-09-26T02:47:28.907Z,23.25
2022-09-26T02:52:30.665Z,22.60
2022-09-26T02:57:32.434Z,22.13
2022-09-26T03:02:34.166Z,23.48
2022-09-26T03:07:35.926Z,20.80
2022-09-26T03:12:37.697Z,19.73
2022-09-26T03:17:39.437Z,20.65
2022-09-26T03:22:40.963Z,20.15
2022-09-26T03:27:42.624Z,21.33
2022-09-26T03:32:44.130Z,18.00
2022-09-26T03:37:45.812Z,20.95
2022-09-26T03:42:47.573Z,25.67
2022-09-26T03:47:49.121Z,20.85
2022-09-26T03:52:50.786Z,20.35
2022-09-26T03:57:52.532Z,19.25
2022-09-26T04:02:54.064Z,21.00
2022-09-26T04:07:55.737Z,20.83
2022-09-26T04:12:57.469Z,21.38
2022-09-26T04:17:58.991Z,22.13
2022-09-26T04:23:00.665Z,20.67
2022-09-26T04:28:02.433Z,20.98
2022-09-26T04:33:04.173Z,19.50
2022-09-26T04:38:05.944Z,21.02
2022-09-26T04:43:07.675Z,21.60
2022-09-26T04:48:09.435Z,24.25
2022-09-26T04:53:11.209Z,23.42
2022-09-26T04:58:12.953Z,23.00
2022-09-26T05:03:14.733Z,23.75
2022-09-26T05:08:16.379Z,21.83
2022-09-26T05:13:18.205Z,21.92
2022-09-26T05:18:19.746Z,23.50
2022-09-26T05:23:21.420Z,24.30
2022-09-26T05:28:23.174Z,23.27
2022-09-26T05:33:24.914Z,24.10
2022-09-26T05:38:26.679Z,24.25
2022-09-26T05:43:28.428Z,23.45
2022-09-26T05:48:30.202Z,21.88
2022-09-26T05:53:31.731Z,22.00
2022-09-26T05:58:33.378Z,23.33
2022-09-26T06:03:35.153Z,23.10
2022-09-26T06:08:36.876Z,23.33
2022-09-26T06:13:38.393Z,23.52
2022-09-26T06:18:40.097Z,22.85
2022-09-26T06:23:41.827Z,22.90
2022-09-26T06:28:43.595Z,23.23
2022-09-26T06:33:45.339Z,22.50
2022-09-26T06:38:47.196Z,23.55
2022-09-26T06:43:48.874Z,23.50
2022-09-26T06:48:50.616Z,23.48
2022-09-26T06:53:52.362Z,24.30
2022-09-26T06:58:54.140Z,22.75
2022-09-26T07:03:55.760Z,22.83
2022-09-26T07:09:02.637Z,23.27
2022-09-26T07:14:05.016Z,24.67
2022-09-26T07:19:06.564Z,33.75
2022-09-26T07:24:08.233Z,33.95
2022-09-26T07:29:09.958Z,31.02
2022-09-26T07:34:14.648Z,29.13
2022-09-26T07:39:19.782Z,22.73
2022-09-26T07:49:43.333Z,27.80
2022-09-26T07:54:44.956Z,27.73
2022-09-26T07:59:46.491Z,31.55
2022-09-26T08:04:48.252Z,26.50
2022-09-26T08:09:50.025Z,27.05
2022-09-26T08:14:51.772Z,26.20
2022-09-26T08:19:53.520Z,27.50
2022-09-26T08:24:55.276Z,28.75
2022-09-26T08:29:57.009Z,31.15
2022-09-26T08:34:58.785Z,31.65
2022-09-26T08:40:00.546Z,29.83
2022-09-26T08:45:02.279Z,27.30
2022-09-26T08:50:04.058Z,27.50
2022-09-26T08:55:05.783Z,29.60
2022-09-26T09:00:07.323Z,30.35
2022-09-26T09:05:08.981Z,29.13
2022-09-26T09:10:10.750Z,30.45
2022-09-26T09:15:25.295Z,30.33
2022-09-26T09:20:27.761Z,24.15
2022-09-26T09:25:29.374Z,19.90
2022-09-26T09:30:30.920Z,19.77
2022-09-26T09:35:32.607Z,19.65
2022-09-26T09:40:34.477Z,19.33
2022-09-26T09:45:36.204Z,21.63
2022-09-26T09:50:37.926Z,20.48
2022-09-26T09:55:39.450Z,21.38
2022-09-26T10:00:41.045Z,18.70
2022-09-26T10:05:42.575Z,17.00
2022-09-26T10:10:44.345Z,16.48
2022-09-26T10:15:45.928Z,18.13
2022-09-26T10:20:47.515Z,17.77
2022-09-26T10:25:49.037Z,13.07
2022-09-26T10:30:50.766Z,14.73
2022-09-26T10:35:52.471Z,14.00
2022-09-26T10:40:54.052Z,13.07
2022-09-26T10:45:55.700Z,9.93
2022-09-26T10:50:57.443Z,10.55
2022-09-26T10:55:59.176Z,12.65
2022-09-26T11:01:00.924Z,15.15
2022-09-26T11:06:02.449Z,12.27
2022-09-26T11:11:04.125Z,14.65
2022-09-26T11:16:05.940Z,13.43
2022-09-26T11:21:18.396Z,10.88
2022-09-26T11:26:29.126Z,11.27
2022-09-26T11:31:30.728Z,10.00
2022-09-26T11:36:32.638Z,9.82
2022-09-26T11:41:34.402Z,9.50
2022-09-26T11:46:36.044Z,10.52
2022-09-26T11:51:37.689Z,10.65
2022-09-26T11:56:39.242Z,9.45
2022-09-26T12:01:40.827Z,9.32
2022-09-26T12:06:42.426Z,8.80
2022-09-26T12:11:43.965Z,8.15
2022-09-26T12:16:45.717Z,9.30
2022-09-26T12:21:47.246Z,8.50
2022-09-26T12:26:49.467Z,8.20
2022-09-26T12:31:51.059Z,9.02
2022-09-26T12:36:52.755Z,7.68
2022-09-26T12:41:54.266Z,6.85
2022-09-26T12:46:55.997Z,7.10
2022-09-26T12:51:57.707Z,6.85
2022-09-26T12:56:59.244Z,5.88
2022-09-26T13:02:00.990Z,8.60
2022-09-26T13:07:18.457Z,8.05
2022-09-26T13:12:21.327Z,6.40
2022-09-26T13:17:23.097Z,5.90
2022-09-26T13:22:24.827Z,4.93
2022-09-26T13:27:26.581Z,4.80
2022-09-26T13:32:28.469Z,5.88
2022-09-26T13:37:30.113Z,4.72
2022-09-26T13:42:31.870Z,3.80
2022-09-26T13:47:33.597Z,4.13
2022-09-26T13:52:35.459Z,3.80
2022-09-26T13:57:37.121Z,4.22
2022-09-26T14:02:38.707Z,3.95
2022-09-26T14:07:40.648Z,3.60
2022-09-26T14:12:42.259Z,3.65
2022-09-26T14:17:43.839Z,3.75
2022-09-26T14:22:46.247Z,4.60
2022-09-26T14:27:47.980Z,3.90
2022-09-26T14:32:49.710Z,4.32
2022-09-26T14:37:51.255Z,3.97
2022-09-26T14:42:52.883Z,3.80
2022-09-26T14:47:54.398Z,3.40
2022-09-26T14:52:56.103Z,3.92
2022-09-26T14:57:57.859Z,3.65
2022-09-26T15:03:01.360Z,3.40
2022-09-26T15:08:03.224Z,2.97
2022-09-26T15:13:04.754Z,3.70
2022-09-26T15:18:06.450Z,3.65
2022-09-26T15:23:08.192Z,3.50
2022-09-26T15:28:09.967Z,3.55
2022-09-26T15:33:16.139Z,3.47
2022-09-26T15:38:18.173Z,3.70
2022-09-26T15:43:19.900Z,3.80
2022-09-26T15:48:21.421Z,4.10
2022-09-26T15:53:22.954Z,4.05
2022-09-26T15:58:24.557Z,4.95
2022-09-26T16:03:26.348Z,4.25
2022-09-26T16:08:28.043Z,4.50
2022-09-26T16:13:29.687Z,4.53
2022-09-26T16:18:31.260Z,4.40
2022-09-26T16:23:32.983Z,5.22
2022-09-26T16:28:34.760Z,4.45
2022-09-26T16:33:36.350Z,5.05
2022-09-26T16:38:37.964Z,7.13
2022-09-26T16:43:39.772Z,5.70
2022-09-26T16:48:41.516Z,5.55
2022-09-26T16:53:43.103Z,5.30
2022-09-26T16:58:44.675Z,6.28
2022-09-26T17:03:46.491Z,6.30
2022-09-26T17:08:48.135Z,9.52
2022-09-26T17:13:49.944Z,15.00
2022-09-26T17:18:51.709Z,12.57
2022-09-26T17:23:53.511Z,10.52
2022-09-26T17:28:55.149Z,13.00
2022-09-26T17:33:56.773Z,12.48
2022-09-26T17:38:58.456Z,12.20
2022-09-26T17:44:00.116Z,11.50
2022-09-26T17:49:01.873Z,16.83
2022-09-26T17:54:03.501Z,22.40
2022-09-26T17:59:05.183Z,15.77
2022-09-26T18:04:06.990Z,21.67
2022-09-26T18:09:08.671Z,27.02
2022-09-26T18:14:10.428Z,25.23
2022-09-26T18:19:12.229Z,20.27
2022-09-26T18:24:18.597Z,77.22
2022-09-26T18:29:21.363Z,29.52
2022-09-26T18:34:23.061Z,24.08
2022-09-26T18:39:24.836Z,21.10
2022-09-26T18:44:26.574Z,29.50
2022-09-26T18:49:28.242Z,25.02
2022-09-26T18:54:30.068Z,21.35
2022-09-26T18:59:31.830Z,20.42
2022-09-26T19:04:33.890Z,25.73
2022-09-26T19:09:35.674Z,24.48
2022-09-26T19:14:37.435Z,25.30
2022-09-26T19:19:39.172Z,25.83
2022-09-26T19:24:40.917Z,29.67
2022-09-26T19:29:42.837Z,30.20
2022-09-26T19:34:44.479Z,24.23
2022-09-26T19:39:46.189Z,22.70
2022-09-26T19:44:47.965Z,25.25
2022-09-26T19:49:49.683Z,24.35
2022-09-26T19:54:51.464Z,21.05
2022-09-26T19:59:53.203Z,20.17
2022-09-26T20:04:54.930Z,20.63
2022-09-26T20:09:56.649Z,32.00
2022-09-26T20:14:58.392Z,29.25
2022-09-26T20:20:00.179Z,27.80
2022-09-26T20:25:01.907Z,26.73
2022-09-26T20:30:03.648Z,29.73
2022-09-26T20:35:05.435Z,25.52
2022-09-26T20:40:07.202Z,23.17
2022-09-26T20:45:08.907Z,23.50
2022-09-26T20:50:10.671Z,23.77
2022-09-26T20:55:12.422Z,23.10
2022-09-26T21:00:14.197Z,23.65
2022-09-26T21:05:15.922Z,25.70
2022-09-26T21:10:17.706Z,28.63
2022-09-26T21:15:19.448Z,24.42
2022-09-26T21:20:21.218Z,23.25
2022-09-26T21:25:22.749Z,20.70
2022-09-26T21:30:24.284Z,19.90
2022-09-26T21:35:25.856Z,19.50
2022-09-26T21:40:27.508Z,22.67
2022-09-26T21:45:29.345Z,18.67
2022-09-26T21:50:31.101Z,21.33
2022-09-26T21:55:32.890Z,20.67
2022-09-26T22:00:34.608Z,20.50
2022-09-26T22:05:36.343Z,21.83
2022-09-26T22:10:37.874Z,22.05
2022-09-26T22:15:39.536Z,20.50
2022-09-26T22:20:41.334Z,20.67
2022-09-26T22:25:43.167Z,21.33
2022-09-26T22:30:44.834Z,22.30
2022-09-26T22:35:46.562Z,21.48
2022-09-26T22:40:48.398Z,19.92
2022-09-26T22:45:50.136Z,21.55
2022-09-26T22:50:51.821Z,20.40
2022-09-26T22:55:53.583Z,18.98
2022-09-26T23:00:55.368Z,19.98
2022-09-26T23:05:56.938Z,19.05
2022-09-26T23:10:58.526Z,20.92
2022-09-26T23:16:00.331Z,18.83
2022-09-26T23:21:02.077Z,20.17
2022-09-26T23:26:03.665Z,20.67
2022-09-26T23:31:05.258Z,20.63
2022-09-26T23:36:07.009Z,22.05
2022-09-26T23:41:08.748Z,21.00
2022-09-26T23:46:10.564Z,20.77
2022-09-26T23:51:12.288Z,19.00
2022-09-26T23:56:13.969Z,18.52
